Impacts TAF Board INFO
FOR SITUATIONAL AWARENESS. NOT TO BE USED FOR FLIGHT PLANNING PURPOSES.
IDs:

KSLC - Salt Lake City Intl, UT, US

Issued at 1120 UTC 22 Feb 2018
Updated at 1438 UTC 22 Feb 2018
Potential Impact None Slight Moderate High
Time<<23/15Z 23/16Z 23/17Z 23/18Z 23/19Z 23/20Z 23/21Z 23/22Z 23/23Z 24/00Z 24/01Z 24/02Z 24/03Z
Type PRVL PRVL PRVL
VIS 2 2 2
CIG 15 15 15
Cover BKN BKN BKN
FltCat IFR IFR IFR
WX -SN BR -SN BR -SN BR
WDir 330 330 330
WSpd 7 7 7
WGst -- -- --

Raw TAF
KSLC 221120Z 2212/2318 15006KT P6SM SCT060 BKN100
  FM221800 17012G20KT P6SM SCT040 BKN080
  FM230000 16011KT P6SM VCSH SCT020 BKN040
  FM231200 33007KT 2SM -SN BR SCT007 BKN015


METAR Board
Radar Display
Forecast Discussion

FOR SITUATIONAL AWARENESS. NOT TO BE USED FOR FLIGHT PLANNING PURPOSES.